Kiara — PD2321 — position and weather

sailwx.info

Track history (hours):
 
Tides and Currents Weather Stations Pressure Air Temp Water Temp Dewpoint Dewpoint Depression Visibility Wind Speed Wind Dir Waves Ship Positions

Kiara

Last reported at 2017-Oct-13 00:18 UTC. Time now 2017-Oct-18 00:05 UTC.
Position N 44°31' E 022°12'.

Length 86 m; draft 2.2 m.

Type: Tanker. MMSI: 244660318.

Date/timePositionNaut miles runAvg speedWind from/ knotsBaromVisibWave heightAir tempDewpointWater temp
2017-Oct-13 00:18N 44°31' E 022°12'2 7.9
2017-Oct-13 00:01N 44°29' E 022°11'4 7.4
2017-Oct-12 23:31N 44°30' E 022°06'4 8.0
2017-Oct-12 23:01N 44°33' E 022°02'16 7.4
2017-Oct-12 20:51N 44°40' E 021°42'4 8.2
2017-Oct-12 20:20N 44°43' E 021°38'3 8.3
2017-Oct-12 20:01N 44°45' E 021°36'4 5.6
2017-Oct-12 19:22N 44°46' E 021°31'0 0.0
2017-Oct-12 18:54N 44°46' E 021°31'0 0.0
2017-Oct-12 18:30N 44°46' E 021°31'0 0.0
2017-Oct-12 17:46N 44°46' E 021°31'0 0.0
2017-Oct-12 17:30N 44°46' E 021°31'21 7.0
2017-Oct-12 14:32N 44°43' E 021°02'0 8.1
2017-Oct-12 14:29N 44°43' E 021°02'3 7.2
2017-Oct-12 14:01N 44°42' E 020°57'4 8.5
2017-Oct-12 13:31N 44°40' E 020°52'4 8.9
2017-Oct-12 13:01N 44°40' E 020°46'6 8.7
2017-Oct-12 12:21N 44°44' E 020°40'3 8.4
2017-Oct-12 11:59N 44°46' E 020°38'4 8.4
2017-Oct-12 11:31N 44°50' E 020°38'4 7.4
2017-Oct-12 11:00N 44°51' E 020°33'4 7.2
2017-Oct-12 10:31N 44°50' E 020°28'0 0.0
2017-Oct-12 10:01N 44°50' E 020°28'0 0.0
2017-Oct-12 09:31N 44°50' E 020°28'0 0.1
2017-Oct-12 09:01N 44°50' E 020°28'0 0.0
2017-Oct-12 08:31N 44°50' E 020°28'0 0.0
2017-Oct-12 08:01N 44°50' E 020°28'0 0.0
2017-Oct-12 07:31N 44°50' E 020°28'0 0.5
2017-Oct-12 07:01N 44°50' E 020°29'2 4.4
2017-Oct-12 06:31N 44°51' E 020°26'4 8.9
2017-Oct-12 06:00N 44°54' E 020°21'5 9.2
2017-Oct-12 05:31N 44°57' E 020°17'4 7.8
2017-Oct-12 05:01N 45°00' E 020°21'4 8.5
2017-Oct-12 04:31N 45°04' E 020°20'5 9.5
2017-Oct-12 04:00N 45°08' E 020°16'4 7.5
2017-Oct-12 03:31N 45°11' E 020°12'7 9.4
2017-Oct-12 02:48N 45°10' E 020°02'3 9.5
2017-Oct-12 02:30N 45°11' E 019°59'9 6.8
2017-Oct-12 01:08N 45°14' E 019°46'1 9.0
2017-Oct-12 01:00N 45°14' E 019°44'7 9.4
2017-Oct-12 00:14N 45°13' E 019°34'5 7.6
2017-Oct-11 23:35N 45°14' E 019°27'1 9.7
2017-Oct-11 23:31N 45°14' E 019°26'5 9.8
2017-Oct-11 23:00N 45°14' E 019°19'5 9.9
2017-Oct-11 22:28N 45°16' E 019°12'5 9.9
2017-Oct-11 22:01N 45°18' E 019°06'4 7.9
2017-Oct-11 21:30N 45°21' E 019°02'4 8.2
2017-Oct-11 21:01N 45°24' E 018°59'3 5.2
2017-Oct-11 20:31N 45°26' E 018°60'3 6.7
2017-Oct-11 20:01N 45°29' E 019°01'4 7.2
2017-Oct-11 19:31N 45°31' E 019°06'4 8.5
2017-Oct-11 19:01N 45°33' E 019°01'4 7.6
2017-Oct-11 18:31N 45°33' E 018°55'3 6.7
2017-Oct-11 18:01N 45°36' E 018°54'4 8.7
2017-Oct-11 17:31N 45°40' E 018°58'4 8.9
2017-Oct-11 17:01N 45°43' E 018°54'94 5.5
2017-Oct-10 23:48N 47°17' E 018°55'0 0.0
2017-Oct-10 23:30N 47°17' E 018°55'0 0.0
2017-Oct-10 22:57N 47°17' E 018°55'0 0.0
2017-Oct-10 21:04N 47°17' E 018°55'0 0.0
2017-Oct-10 20:55N 47°17' E 018°55'0 0.0
2017-Oct-10 19:25N 47°17' E 018°55'0 0.0
2017-Oct-10 18:59N 47°17' E 018°55'0 0.0
2017-Oct-10 18:28N 47°17' E 018°55'0 0.0
2017-Oct-10 18:00N 47°17' E 018°55'0 0.0
2017-Oct-10 17:29N 47°17' E 018°55'0 0.0
2017-Oct-10 15:02N 47°17' E 018°55'0 0.0
2017-Oct-10 13:53N 47°17' E 018°55'0 0.0
2017-Oct-10 09:27N 47°17' E 018°55'0 0.0
2017-Oct-10 06:01N 47°17' E 018°55'0 0.0
2017-Oct-09 22:55N 47°17' E 018°55'83 2.7
2017-Oct-08 15:54N 45°55' E 018°48'3 5.4
2017-Oct-08 15:24N 45°53' E 018°50'2 5.2
2017-Oct-08 15:00N 45°51' E 018°52'0 0.1
2017-Oct-08 14:31N 45°51' E 018°52'0 0.0
2017-Oct-08 13:59N 45°51' E 018°52'1 2.2
2017-Oct-08 13:28N 45°50' E 018°51'3 5.4
2017-Oct-08 13:00N 45°47' E 018°52'2 5.0
2017-Oct-08 12:31N 45°45' E 018°54'3 5.8
2017-Oct-08 12:01N 45°42' E 018°55'3 5.7
2017-Oct-08 11:30N 45°40' E 018°58'3 5.1
2017-Oct-08 11:01N 45°38' E 018°56'2 4.9
2017-Oct-08 10:31N 45°36' E 018°55'2 5.0
2017-Oct-08 10:01N 45°33' E 018°54'3 5.6
2017-Oct-08 09:31N 45°32' E 018°57'3 5.2
2017-Oct-08 09:01N 45°33' E 019°01'2 4.5
2017-Oct-08 08:31N 45°32' E 019°03'3 5.1
2017-Oct-08 08:01N 45°30' E 019°06'3 5.4
2017-Oct-08 07:31N 45°29' E 019°03'2 4.7
2017-Oct-08 07:01N 45°29' E 018°59'3 5.6
2017-Oct-08 06:30N 45°26' E 018°60'2 4.6
2017-Oct-08 06:01N 45°24' E 019°01'3 5.1
2017-Oct-08 05:30N 45°23' E 018°58'3 6.0
2017-Oct-08 05:00N 45°21' E 019°01'3 5.7
2017-Oct-08 04:29N 45°20' E 019°05'3 5.6
2017-Oct-08 04:00N 45°18' E 019°07'3 5.7
2017-Oct-08 03:30N 45°16' E 019°10'3 5.6
2017-Oct-08 02:59N 45°15' E 019°14'3 5.5
2017-Oct-08 02:29N 45°14' E 019°18'3 5.8
2017-Oct-08 01:57N 45°14' E 019°22'3 5.8
2017-Oct-08 01:31N 45°14' E 019°26'3 5.7
2017-Oct-08 00:58N 45°15' E 019°30'7 4.5
2017-Oct-07 23:25N 45°13' E 019°40'2 5.7
2017-Oct-07 22:59N 45°14' E 019°43'9 3.3
2017-Oct-07 20:11N 45°13' E 019°56'2 6.2
2017-Oct-07 19:56N 45°11' E 019°58'1 0.1
2017-Oct-07 09:23N 45°11' E 019°59'3 0.3
2017-Oct-06 23:26N 45°13' E 019°56'2 5.3
2017-Oct-06 23:01N 45°11' E 019°58'3 5.3
2017-Oct-06 22:31N 45°10' E 020°02'3 4.9
2017-Oct-06 21:54N 45°10' E 020°06'3 4.7
2017-Oct-06 21:21N 45°11' E 020°09'2 4.7
2017-Oct-06 21:01N 45°11' E 020°12'2 5.0
2017-Oct-06 20:30N 45°10' E 020°15'2 4.0
2017-Oct-06 19:58N 45°08' E 020°17'2 5.3
2017-Oct-06 19:31N 45°06' E 020°18'3 5.1
2017-Oct-06 19:01N 45°04' E 020°21'3 5.2
2017-Oct-06 18:31N 45°01' E 020°22'2 4.3
2017-Oct-06 18:00N 44°60' E 020°20'2 4.9
2017-Oct-06 17:31N 44°58' E 020°17'3 5.4
2017-Oct-06 17:00N 44°56' E 020°19'3 5.6
2017-Oct-06 16:31N 44°53' E 020°21'3 5.4
2017-Oct-06 16:01N 44°51' E 020°24'3 5.3
2017-Oct-06 15:31N 44°50' E 020°27'3 5.4
2017-Oct-06 15:01N 44°50' E 020°31'3 5.6
2017-Oct-06 14:30N 44°51' E 020°35'2 4.7
2017-Oct-06 14:01N 44°51' E 020°38'0 0.0
2017-Oct-06 13:31N 44°51' E 020°38'0 0.0
2017-Oct-06 13:01N 44°51' E 020°38'0 0.0
2017-Oct-06 12:30N 44°51' E 020°38'0 0.0
2017-Oct-06 12:00N 44°51' E 020°38'0 0.0
2017-Oct-06 11:30N 44°51' E 020°38'0 0.0
2017-Oct-06 11:00N 44°51' E 020°38'0 0.0
2017-Oct-06 10:30N 44°51' E 020°38'0 0.0
2017-Oct-06 10:00N 44°51' E 020°38'0 0.0
2017-Oct-06 09:30N 44°51' E 020°38'0 0.0
2017-Oct-06 09:00N 44°51' E 020°38'2 3.6
2017-Oct-06 08:31N 44°49' E 020°39'3 5.8
2017-Oct-06 08:01N 44°46' E 020°38'3 5.5
2017-Oct-06 07:31N 44°44' E 020°40'3 5.7
2017-Oct-06 07:00N 44°42' E 020°42'4 5.7
2017-Oct-06 06:20N 44°40' E 020°47'2 5.7
2017-Oct-06 05:57N 44°39' E 020°50'3 5.9
2017-Oct-06 05:30N 44°40' E 020°54'3 5.9
2017-Oct-06 05:00N 44°42' E 020°57'3 5.7
2017-Oct-06 04:30N 44°43' E 021°00'19 5.2
2017-Oct-06 00:51N 44°46' E 021°27'2 5.7
2017-Oct-06 00:26N 44°46' E 021°30'1 0.9
2017-Oct-05 23:29N 44°46' E 021°31'2 3.9
2017-Oct-05 23:01N 44°46' E 021°34'3 5.5
2017-Oct-05 22:31N 44°44' E 021°36'3 5.3
2017-Oct-05 22:01N 44°42' E 021°39'3 5.7
2017-Oct-05 21:30N 44°40' E 021°41'14 5.2
2017-Oct-05 18:50N 44°36' E 022°00'2 5.6
2017-Oct-05 18:30N 44°35' E 022°02'3 5.8
2017-Oct-05 18:01N 44°32' E 022°03'3 6.0
2017-Oct-05 17:30N 44°30' E 022°06'3 6.3
2017-Oct-05 17:01N 44°28' E 022°10'11 5.5
2017-Oct-05 14:59N 44°38' E 022°17'3 6.0
2017-Oct-05 14:30N 44°40' E 022°20'3 6.3
2017-Oct-05 14:00N 44°41' E 022°24'3 5.7
2017-Oct-05 13:31N 44°43' E 022°28'3 6.3
2017-Oct-05 13:00N 44°41' E 022°31'1 1.5
2017-Oct-05 12:31N 44°40' E 022°32'0 0.4
2017-Oct-05 12:00N 44°40' E 022°32'3 5.3
2017-Oct-05 11:31N 44°38' E 022°35'3 5.5
2017-Oct-05 11:01N 44°37' E 022°38'0 0.6
2017-Oct-05 10:31N 44°37' E 022°38'0 0.0
2017-Oct-05 10:01N 44°37' E 022°38'0 0.0
2017-Oct-05 09:30N 44°37' E 022°38'0 0.0
2017-Oct-05 09:01N 44°37' E 022°38'0 0.0
2017-Oct-05 08:30N 44°37' E 022°38'0 0.0
2017-Oct-05 08:01N 44°37' E 022°38'0 0.0
2017-Oct-05 07:31N 44°37' E 022°38'0 0.0
2017-Oct-05 07:01N 44°37' E 022°38'0 0.0
2017-Oct-05 06:31N 44°37' E 022°38'0 0.0
2017-Oct-05 06:01N 44°37' E 022°38'0 0.1
2017-Oct-05 05:30N 44°37' E 022°38'0 0.0
2017-Oct-05 05:00N 44°37' E 022°38'0 0.0
2017-Oct-05 04:31N 44°37' E 022°38'0 0.0
2017-Oct-05 04:01N 44°37' E 022°38'0 0.0
2017-Oct-05 03:31N 44°37' E 022°38'0 0.0
2017-Oct-05 03:00N 44°37' E 022°38'0 0.0
2017-Oct-05 02:31N 44°37' E 022°38'0 0.0
2017-Oct-05 02:01N 44°37' E 022°38'0 0.0
2017-Oct-05 01:31N 44°37' E 022°38'0 0.0
2017-Oct-05 01:01N 44°37' E 022°38'0 0.0
2017-Oct-05 00:31N 44°37' E 022°38'0 0.0
2017-Oct-05 00:01N 44°37' E 022°38'0 0.0
2017-Oct-04 23:30N 44°37' E 022°38'0 0.0
2017-Oct-04 23:01N 44°37' E 022°38'0 0.0
2017-Oct-04 22:31N 44°37' E 022°38'0 0.0
2017-Oct-04 22:01N 44°37' E 022°38'0 0.0
2017-Oct-04 21:30N 44°37' E 022°38'0 0.0
2017-Oct-04 21:01N 44°37' E 022°38'0 0.0
2017-Oct-04 20:30N 44°37' E 022°38'0 0.0
2017-Oct-04 20:00N 44°37' E 022°38'0 0.0
2017-Oct-04 19:30N 44°37' E 022°38'0 0.0
2017-Oct-04 19:01N 44°37' E 022°38'0 0.5
2017-Oct-04 18:31N 44°37' E 022°39'1 2.3
2017-Oct-04 18:01N 44°37' E 022°40'0 0.0
2017-Oct-04 17:30N 44°37' E 022°40'0 0.0
2017-Oct-04 17:01N 44°37' E 022°40'0 0.0
2017-Oct-04 16:31N 44°37' E 022°40'0 0.0
2017-Oct-04 16:01N 44°37' E 022°40'0 0.0
2017-Oct-04 15:30N 44°37' E 022°40'0 0.0
2017-Oct-04 15:01N 44°37' E 022°40'0 0.0
2017-Oct-04 14:30N 44°37' E 022°40'0 0.0
2017-Oct-04 14:01N 44°37' E 022°40'0 0.0
2017-Oct-04 13:31N 44°37' E 022°40'0 0.0
2017-Oct-04 13:00N 44°37' E 022°40'0 0.0
2017-Oct-04 12:31N 44°37' E 022°40'0 0.0
2017-Oct-04 12:01N 44°37' E 022°40'0 0.0
2017-Oct-04 11:30N 44°37' E 022°40'0 0.0
2017-Oct-04 11:01N 44°37' E 022°40'0 0.0
2017-Oct-04 10:31N 44°37' E 022°40'0 0.0
2017-Oct-04 10:01N 44°37' E 022°40'0 0.0
2017-Oct-04 09:30N 44°37' E 022°40'0 0.0
2017-Oct-04 09:01N 44°37' E 022°40'0 0.0
2017-Oct-04 08:31N 44°37' E 022°40'0 0.0
2017-Oct-04 08:00N 44°37' E 022°40'0 0.0
2017-Oct-04 07:30N 44°37' E 022°40'0 0.0
2017-Oct-04 07:00N 44°37' E 022°40'0 0.0
2017-Oct-04 06:30N 44°37' E 022°40'0 0.1
2017-Oct-04 06:01N 44°37' E 022°40'2 5.0
2017-Oct-04 05:31N 44°36' E 022°43'3 6.0
2017-Oct-04 05:00N 44°33' E 022°46'3 5.0
2017-Oct-04 04:30N 44°31' E 022°43'3 5.6
2017-Oct-04 04:00N 44°32' E 022°39'3 6.4
2017-Oct-04 03:30N 44°33' E 022°35'3 6.6
2017-Oct-04 03:00N 44°30' E 022°33'3 6.1
2017-Oct-04 02:30N 44°29' E 022°29'2 4.6
2017-Oct-04 02:00N 44°27' E 022°28'3 6.6
2017-Oct-04 01:31N 44°24' E 022°30'3 6.9
2017-Oct-04 01:00N 44°20' E 022°32'2 4.1
2017-Oct-04 00:31N 44°19' E 022°34'1 2.9
2017-Oct-04 00:01N 44°18' E 022°36'3 6.1
2017-Oct-03 23:31N 44°17' E 022°40'3 5.4
2017-Oct-03 23:00N 44°15' E 022°41'3 5.1
2017-Oct-03 22:30N 44°12' E 022°42'3 5.6
2017-Oct-03 22:00N 44°11' E 022°46'3 6.1
2017-Oct-03 21:30N 44°09' E 022°49'3 6.2
2017-Oct-03 21:00N 44°08' E 022°53'3 6.0
2017-Oct-03 20:31N 44°06' E 022°56'3 6.2
2017-Oct-03 20:00N 44°06' E 023°00'3 5.8
2017-Oct-03 19:30N 44°04' E 023°03'3 6.0
2017-Oct-03 19:01N 44°01' E 023°01'3 6.1
2017-Oct-03 18:30N 44°00' E 022°57'3 6.0
2017-Oct-03 18:01N 43°59' E 022°53'3 6.4
2017-Oct-03 17:31N 43°56' E 022°52'3 6.2
2017-Oct-03 17:01N 43°53' E 022°50'3 6.1
2017-Oct-03 16:30N 43°50' E 022°52'3 6.3
2017-Oct-03 16:00N 43°49' E 022°56'3 6.1
2017-Oct-03 15:27N 43°48' E 023°01'12 5.8
2017-Oct-03 13:28N 43°51' E 023°16'  
Track history (hours):
 
Tides and Currents Weather Stations Pressure Air Temp Water Temp Dewpoint Dewpoint Depression Visibility Wind Speed Wind Dir Waves Ship Positions

Kiara

Last reported at 2017-Oct-13 00:18 UTC. Time now 2017-Oct-18 00:05 UTC.
Position N 44°31' E 022°12'.

Length 86 m; draft 2.2 m.

Type: Tanker. MMSI: 244660318.

Date/timePositionNaut miles runAvg speedWind from/ knotsBaromVisibWave heightAir tempDewpointWater temp
2017-Oct-13 00:18N 44°31' E 022°12'2 7.9
2017-Oct-13 00:01N 44°29' E 022°11'4 7.4
2017-Oct-12 23:31N 44°30' E 022°06'4 8.0
2017-Oct-12 23:01N 44°33' E 022°02'16 7.4
2017-Oct-12 20:51N 44°40' E 021°42'4 8.2
2017-Oct-12 20:20N 44°43' E 021°38'3 8.3
2017-Oct-12 20:01N 44°45' E 021°36'4 5.6
2017-Oct-12 19:22N 44°46' E 021°31'0 0.0
2017-Oct-12 18:54N 44°46' E 021°31'0 0.0
2017-Oct-12 18:30N 44°46' E 021°31'0 0.0
2017-Oct-12 17:46N 44°46' E 021°31'0 0.0
2017-Oct-12 17:30N 44°46' E 021°31'21 7.0
2017-Oct-12 14:32N 44°43' E 021°02'0 8.1
2017-Oct-12 14:29N 44°43' E 021°02'3 7.2
2017-Oct-12 14:01N 44°42' E 020°57'4 8.5
2017-Oct-12 13:31N 44°40' E 020°52'4 8.9
2017-Oct-12 13:01N 44°40' E 020°46'6 8.7
2017-Oct-12 12:21N 44°44' E 020°40'3 8.4
2017-Oct-12 11:59N 44°46' E 020°38'4 8.4
2017-Oct-12 11:31N 44°50' E 020°38'4 7.4
2017-Oct-12 11:00N 44°51' E 020°33'4 7.2
2017-Oct-12 10:31N 44°50' E 020°28'0 0.0
2017-Oct-12 10:01N 44°50' E 020°28'0 0.0
2017-Oct-12 09:31N 44°50' E 020°28'0 0.1
2017-Oct-12 09:01N 44°50' E 020°28'0 0.0
2017-Oct-12 08:31N 44°50' E 020°28'0 0.0
2017-Oct-12 08:01N 44°50' E 020°28'0 0.0
2017-Oct-12 07:31N 44°50' E 020°28'0 0.5
2017-Oct-12 07:01N 44°50' E 020°29'2 4.4
2017-Oct-12 06:31N 44°51' E 020°26'4 8.9
2017-Oct-12 06:00N 44°54' E 020°21'5 9.2
2017-Oct-12 05:31N 44°57' E 020°17'4 7.8
2017-Oct-12 05:01N 45°00' E 020°21'4 8.5
2017-Oct-12 04:31N 45°04' E 020°20'5 9.5
2017-Oct-12 04:00N 45°08' E 020°16'4 7.5
2017-Oct-12 03:31N 45°11' E 020°12'7 9.4
2017-Oct-12 02:48N 45°10' E 020°02'3 9.5
2017-Oct-12 02:30N 45°11' E 019°59'9 6.8
2017-Oct-12 01:08N 45°14' E 019°46'1 9.0
2017-Oct-12 01:00N 45°14' E 019°44'7 9.4
2017-Oct-12 00:14N 45°13' E 019°34'5 7.6
2017-Oct-11 23:35N 45°14' E 019°27'1 9.7
2017-Oct-11 23:31N 45°14' E 019°26'5 9.8
2017-Oct-11 23:00N 45°14' E 019°19'5 9.9
2017-Oct-11 22:28N 45°16' E 019°12'5 9.9
2017-Oct-11 22:01N 45°18' E 019°06'4 7.9
2017-Oct-11 21:30N 45°21' E 019°02'4 8.2
2017-Oct-11 21:01N 45°24' E 018°59'3 5.2
2017-Oct-11 20:31N 45°26' E 018°60'3 6.7
2017-Oct-11 20:01N 45°29' E 019°01'4 7.2
2017-Oct-11 19:31N 45°31' E 019°06'4 8.5
2017-Oct-11 19:01N 45°33' E 019°01'4 7.6
2017-Oct-11 18:31N 45°33' E 018°55'3 6.7
2017-Oct-11 18:01N 45°36' E 018°54'4 8.7
2017-Oct-11 17:31N 45°40' E 018°58'4 8.9
2017-Oct-11 17:01N 45°43' E 018°54'94 5.5
2017-Oct-10 23:48N 47°17' E 018°55'0 0.0
2017-Oct-10 23:30N 47°17' E 018°55'0 0.0
2017-Oct-10 22:57N 47°17' E 018°55'0 0.0
2017-Oct-10 21:04N 47°17' E 018°55'0 0.0
2017-Oct-10 20:55N 47°17' E 018°55'0 0.0
2017-Oct-10 19:25N 47°17' E 018°55'0 0.0
2017-Oct-10 18:59N 47°17' E 018°55'0 0.0
2017-Oct-10 18:28N 47°17' E 018°55'0 0.0
2017-Oct-10 18:00N 47°17' E 018°55'0 0.0
2017-Oct-10 17:29N 47°17' E 018°55'0 0.0
2017-Oct-10 15:02N 47°17' E 018°55'0 0.0
2017-Oct-10 13:53N 47°17' E 018°55'0 0.0
2017-Oct-10 09:27N 47°17' E 018°55'0 0.0
2017-Oct-10 06:01N 47°17' E 018°55'0 0.0
2017-Oct-09 22:55N 47°17' E 018°55'83 2.7
2017-Oct-08 15:54N 45°55' E 018°48'3 5.4
2017-Oct-08 15:24N 45°53' E 018°50'2 5.2
2017-Oct-08 15:00N 45°51' E 018°52'0 0.1
2017-Oct-08 14:31N 45°51' E 018°52'0 0.0
2017-Oct-08 13:59N 45°51' E 018°52'1 2.2
2017-Oct-08 13:28N 45°50' E 018°51'3 5.4
2017-Oct-08 13:00N 45°47' E 018°52'2 5.0
2017-Oct-08 12:31N 45°45' E 018°54'3 5.8
2017-Oct-08 12:01N 45°42' E 018°55'3 5.7
2017-Oct-08 11:30N 45°40' E 018°58'3 5.1
2017-Oct-08 11:01N 45°38' E 018°56'2 4.9
2017-Oct-08 10:31N 45°36' E 018°55'2 5.0
2017-Oct-08 10:01N 45°33' E 018°54'3 5.6
2017-Oct-08 09:31N 45°32' E 018°57'3 5.2
2017-Oct-08 09:01N 45°33' E 019°01'2 4.5
2017-Oct-08 08:31N 45°32' E 019°03'3 5.1
2017-Oct-08 08:01N 45°30' E 019°06'3 5.4
2017-Oct-08 07:31N 45°29' E 019°03'2 4.7
2017-Oct-08 07:01N 45°29' E 018°59'3 5.6
2017-Oct-08 06:30N 45°26' E 018°60'2 4.6
2017-Oct-08 06:01N 45°24' E 019°01'3 5.1
2017-Oct-08 05:30N 45°23' E 018°58'3 6.0
2017-Oct-08 05:00N 45°21' E 019°01'3 5.7
2017-Oct-08 04:29N 45°20' E 019°05'3 5.6
2017-Oct-08 04:00N 45°18' E 019°07'3 5.7
2017-Oct-08 03:30N 45°16' E 019°10'3 5.6
2017-Oct-08 02:59N 45°15' E 019°14'3 5.5
2017-Oct-08 02:29N 45°14' E 019°18'3 5.8
2017-Oct-08 01:57N 45°14' E 019°22'3 5.8
2017-Oct-08 01:31N 45°14' E 019°26'3 5.7
2017-Oct-08 00:58N 45°15' E 019°30'7 4.5
2017-Oct-07 23:25N 45°13' E 019°40'2 5.7
2017-Oct-07 22:59N 45°14' E 019°43'9 3.3
2017-Oct-07 20:11N 45°13' E 019°56'2 6.2
2017-Oct-07 19:56N 45°11' E 019°58'1 0.1
2017-Oct-07 09:23N 45°11' E 019°59'3 0.3
2017-Oct-06 23:26N 45°13' E 019°56'2 5.3
2017-Oct-06 23:01N 45°11' E 019°58'3 5.3
2017-Oct-06 22:31N 45°10' E 020°02'3 4.9
2017-Oct-06 21:54N 45°10' E 020°06'3 4.7
2017-Oct-06 21:21N 45°11' E 020°09'2 4.7
2017-Oct-06 21:01N 45°11' E 020°12'2 5.0
2017-Oct-06 20:30N 45°10' E 020°15'2 4.0
2017-Oct-06 19:58N 45°08' E 020°17'2 5.3
2017-Oct-06 19:31N 45°06' E 020°18'3 5.1
2017-Oct-06 19:01N 45°04' E 020°21'3 5.2
2017-Oct-06 18:31N 45°01' E 020°22'2 4.3
2017-Oct-06 18:00N 44°60' E 020°20'2 4.9
2017-Oct-06 17:31N 44°58' E 020°17'3 5.4
2017-Oct-06 17:00N 44°56' E 020°19'3 5.6
2017-Oct-06 16:31N 44°53' E 020°21'3 5.4
2017-Oct-06 16:01N 44°51' E 020°24'3 5.3
2017-Oct-06 15:31N 44°50' E 020°27'3 5.4
2017-Oct-06 15:01N 44°50' E 020°31'3 5.6
2017-Oct-06 14:30N 44°51' E 020°35'2 4.7
2017-Oct-06 14:01N 44°51' E 020°38'0 0.0
2017-Oct-06 13:31N 44°51' E 020°38'0 0.0
2017-Oct-06 13:01N 44°51' E 020°38'0 0.0
2017-Oct-06 12:30N 44°51' E 020°38'0 0.0
2017-Oct-06 12:00N 44°51' E 020°38'0 0.0
2017-Oct-06 11:30N 44°51' E 020°38'0 0.0
2017-Oct-06 11:00N 44°51' E 020°38'0 0.0
2017-Oct-06 10:30N 44°51' E 020°38'0 0.0
2017-Oct-06 10:00N 44°51' E 020°38'0 0.0
2017-Oct-06 09:30N 44°51' E 020°38'0 0.0
2017-Oct-06 09:00N 44°51' E 020°38'2 3.6
2017-Oct-06 08:31N 44°49' E 020°39'3 5.8
2017-Oct-06 08:01N 44°46' E 020°38'3 5.5
2017-Oct-06 07:31N 44°44' E 020°40'3 5.7
2017-Oct-06 07:00N 44°42' E 020°42'4 5.7
2017-Oct-06 06:20N 44°40' E 020°47'2 5.7
2017-Oct-06 05:57N 44°39' E 020°50'3 5.9
2017-Oct-06 05:30N 44°40' E 020°54'3 5.9
2017-Oct-06 05:00N 44°42' E 020°57'3 5.7
2017-Oct-06 04:30N 44°43' E 021°00'19 5.2
2017-Oct-06 00:51N 44°46' E 021°27'2 5.7
2017-Oct-06 00:26N 44°46' E 021°30'1 0.9
2017-Oct-05 23:29N 44°46' E 021°31'2 3.9
2017-Oct-05 23:01N 44°46' E 021°34'3 5.5
2017-Oct-05 22:31N 44°44' E 021°36'3 5.3
2017-Oct-05 22:01N 44°42' E 021°39'3 5.7
2017-Oct-05 21:30N 44°40' E 021°41'14 5.2
2017-Oct-05 18:50N 44°36' E 022°00'2 5.6
2017-Oct-05 18:30N 44°35' E 022°02'3 5.8
2017-Oct-05 18:01N 44°32' E 022°03'3 6.0
2017-Oct-05 17:30N 44°30' E 022°06'3 6.3
2017-Oct-05 17:01N 44°28' E 022°10'11 5.5
2017-Oct-05 14:59N 44°38' E 022°17'3 6.0
2017-Oct-05 14:30N 44°40' E 022°20'3 6.3
2017-Oct-05 14:00N 44°41' E 022°24'3 5.7
2017-Oct-05 13:31N 44°43' E 022°28'3 6.3
2017-Oct-05 13:00N 44°41' E 022°31'1 1.5
2017-Oct-05 12:31N 44°40' E 022°32'0 0.4
2017-Oct-05 12:00N 44°40' E 022°32'3 5.3
2017-Oct-05 11:31N 44°38' E 022°35'3 5.5
2017-Oct-05 11:01N 44°37' E 022°38'0 0.6
2017-Oct-05 10:31N 44°37' E 022°38'0 0.0
2017-Oct-05 10:01N 44°37' E 022°38'0 0.0
2017-Oct-05 09:30N 44°37' E 022°38'0 0.0
2017-Oct-05 09:01N 44°37' E 022°38'0 0.0
2017-Oct-05 08:30N 44°37' E 022°38'0 0.0
2017-Oct-05 08:01N 44°37' E 022°38'0 0.0
2017-Oct-05 07:31N 44°37' E 022°38'0 0.0
2017-Oct-05 07:01N 44°37' E 022°38'0 0.0
2017-Oct-05 06:31N 44°37' E 022°38'0 0.0
2017-Oct-05 06:01N 44°37' E 022°38'0 0.1
2017-Oct-05 05:30N 44°37' E 022°38'0 0.0
2017-Oct-05 05:00N 44°37' E 022°38'0 0.0
2017-Oct-05 04:31N 44°37' E 022°38'0 0.0
2017-Oct-05 04:01N 44°37' E 022°38'0 0.0
2017-Oct-05 03:31N 44°37' E 022°38'0 0.0
2017-Oct-05 03:00N 44°37' E 022°38'0 0.0
2017-Oct-05 02:31N 44°37' E 022°38'0 0.0
2017-Oct-05 02:01N 44°37' E 022°38'0 0.0
2017-Oct-05 01:31N 44°37' E 022°38'0 0.0
2017-Oct-05 01:01N 44°37' E 022°38'0 0.0
2017-Oct-05 00:31N 44°37' E 022°38'0 0.0
2017-Oct-05 00:01N 44°37' E 022°38'0 0.0
2017-Oct-04 23:30N 44°37' E 022°38'0 0.0
2017-Oct-04 23:01N 44°37' E 022°38'0 0.0
2017-Oct-04 22:31N 44°37' E 022°38'0 0.0
2017-Oct-04 22:01N 44°37' E 022°38'0 0.0
2017-Oct-04 21:30N 44°37' E 022°38'0 0.0
2017-Oct-04 21:01N 44°37' E 022°38'0 0.0
2017-Oct-04 20:30N 44°37' E 022°38'0 0.0
2017-Oct-04 20:00N 44°37' E 022°38'0 0.0
2017-Oct-04 19:30N 44°37' E 022°38'0 0.0
2017-Oct-04 19:01N 44°37' E 022°38'0 0.5
2017-Oct-04 18:31N 44°37' E 022°39'1 2.3
2017-Oct-04 18:01N 44°37' E 022°40'0 0.0
2017-Oct-04 17:30N 44°37' E 022°40'0 0.0
2017-Oct-04 17:01N 44°37' E 022°40'0 0.0
2017-Oct-04 16:31N 44°37' E 022°40'0 0.0
2017-Oct-04 16:01N 44°37' E 022°40'0 0.0
2017-Oct-04 15:30N 44°37' E 022°40'0 0.0
2017-Oct-04 15:01N 44°37' E 022°40'0 0.0
2017-Oct-04 14:30N 44°37' E 022°40'0 0.0
2017-Oct-04 14:01N 44°37' E 022°40'0 0.0
2017-Oct-04 13:31N 44°37' E 022°40'0 0.0
2017-Oct-04 13:00N 44°37' E 022°40'0 0.0
2017-Oct-04 12:31N 44°37' E 022°40'0 0.0
2017-Oct-04 12:01N 44°37' E 022°40'0 0.0
2017-Oct-04 11:30N 44°37' E 022°40'0 0.0
2017-Oct-04 11:01N 44°37' E 022°40'0 0.0
2017-Oct-04 10:31N 44°37' E 022°40'0 0.0
2017-Oct-04 10:01N 44°37' E 022°40'0 0.0
2017-Oct-04 09:30N 44°37' E 022°40'0 0.0
2017-Oct-04 09:01N 44°37' E 022°40'0 0.0
2017-Oct-04 08:31N 44°37' E 022°40'0 0.0
2017-Oct-04 08:00N 44°37' E 022°40'0 0.0
2017-Oct-04 07:30N 44°37' E 022°40'0 0.0
2017-Oct-04 07:00N 44°37' E 022°40'0 0.0
2017-Oct-04 06:30N 44°37' E 022°40'0 0.1
2017-Oct-04 06:01N 44°37' E 022°40'2 5.0
2017-Oct-04 05:31N 44°36' E 022°43'3 6.0
2017-Oct-04 05:00N 44°33' E 022°46'3 5.0
2017-Oct-04 04:30N 44°31' E 022°43'3 5.6
2017-Oct-04 04:00N 44°32' E 022°39'3 6.4
2017-Oct-04 03:30N 44°33' E 022°35'3 6.6
2017-Oct-04 03:00N 44°30' E 022°33'3 6.1
2017-Oct-04 02:30N 44°29' E 022°29'2 4.6
2017-Oct-04 02:00N 44°27' E 022°28'3 6.6
2017-Oct-04 01:31N 44°24' E 022°30'3 6.9
2017-Oct-04 01:00N 44°20' E 022°32'2 4.1
2017-Oct-04 00:31N 44°19' E 022°34'1 2.9
2017-Oct-04 00:01N 44°18' E 022°36'3 6.1
2017-Oct-03 23:31N 44°17' E 022°40'3 5.4
2017-Oct-03 23:00N 44°15' E 022°41'3 5.1
2017-Oct-03 22:30N 44°12' E 022°42'3 5.6
2017-Oct-03 22:00N 44°11' E 022°46'3 6.1
2017-Oct-03 21:30N 44°09' E 022°49'3 6.2
2017-Oct-03 21:00N 44°08' E 022°53'3 6.0
2017-Oct-03 20:31N 44°06' E 022°56'3 6.2
2017-Oct-03 20:00N 44°06' E 023°00'3 5.8
2017-Oct-03 19:30N 44°04' E 023°03'3 6.0
2017-Oct-03 19:01N 44°01' E 023°01'3 6.1
2017-Oct-03 18:30N 44°00' E 022°57'3 6.0
2017-Oct-03 18:01N 43°59' E 022°53'3 6.4
2017-Oct-03 17:31N 43°56' E 022°52'3 6.2
2017-Oct-03 17:01N 43°53' E 022°50'3 6.1
2017-Oct-03 16:30N 43°50' E 022°52'3 6.3
2017-Oct-03 16:00N 43°49' E 022°56'3 6.1
2017-Oct-03 15:27N 43°48' E 023°01'12 5.8
2017-Oct-03 13:28N 43°51' E 023°16'  

Dump ship's entire track history